Terminal Aerodrome Forecast
Issued by NWS King Salmon, AK

Home | Current Version | Previous Version | Text Only | Print | Product List | Glossary On
Versions: 1 2 3 4 5 6 7 8 9 10 11 12 13 14 15 16 17 18 19 20 21 22 23 24 25 26 27 28 29 30 31 32
000
FTAK31 PANC 201122
TAFAKN
TAF
PAKN 201122Z 2012/2112 VRB06KT P6SM SCT040 OVC100
     FM210600 11008KT 6SM -RA BR SCT025 OVC040=

USA.gov is the U.S. government's official web portal to all federal, state and local government web resources and services.